sensor_id;sensor_type;location;lat;lon;timestamp;temperature;humidity
5868;DHT22;2960;49.142;7.768;2023-06-22T00:02:22;23.60;68.80
5868;DHT22;2960;49.142;7.768;2023-06-22T00:04:50;23.50;69.10
5868;DHT22;2960;49.142;7.768;2023-06-22T00:07:18;23.50;69.10
5868;DHT22;2960;49.142;7.768;2023-06-22T00:09:45;23.50;69.10
5868;DHT22;2960;49.142;7.768;2023-06-22T00:12:12;23.60;69.10
5868;DHT22;2960;49.142;7.768;2023-06-22T00:14:39;23.60;69.20
5868;DHT22;2960;49.142;7.768;2023-06-22T00:17:06;23.60;69.20
5868;DHT22;2960;49.142;7.768;2023-06-22T00:19:33;23.60;69.20
5868;DHT22;2960;49.142;7.768;2023-06-22T00:22:02;23.70;69.30
5868;DHT22;2960;49.142;7.768;2023-06-22T00:24:30;23.70;69.30
5868;DHT22;2960;49.142;7.768;2023-06-22T00:26:57;23.70;69.30
5868;DHT22;2960;49.142;7.768;2023-06-22T00:29:24;23.70;69.40
5868;DHT22;2960;49.142;7.768;2023-06-22T00:31:51;23.70;69.60
5868;DHT22;2960;49.142;7.768;2023-06-22T00:34:18;23.70;70.50
5868;DHT22;2960;49.142;7.768;2023-06-22T00:36:45;23.70;69.80
5868;DHT22;2960;49.142;7.768;2023-06-22T00:39:13;23.70;69.90
5868;DHT22;2960;49.142;7.768;2023-06-22T00:41:40;23.70;70.10
5868;DHT22;2960;49.142;7.768;2023-06-22T00:44:08;23.70;70.20
5868;DHT22;2960;49.142;7.768;2023-06-22T00:46:35;23.70;70.20
5868;DHT22;2960;49.142;7.768;2023-06-22T00:49:02;23.70;70.30
5868;DHT22;2960;49.142;7.768;2023-06-22T00:51:31;23.70;70.30
5868;DHT22;2960;49.142;7.768;2023-06-22T00:53:58;23.70;70.50
5868;DHT22;2960;49.142;7.768;2023-06-22T00:56:27;23.70;70.60
5868;DHT22;2960;49.142;7.768;2023-06-22T00:58:55;23.60;70.60
5868;DHT22;2960;49.142;7.768;2023-06-22T01:01:23;23.60;70.70
5868;DHT22;2960;49.142;7.768;2023-06-22T01:03:50;23.60;70.70
5868;DHT22;2960;49.142;7.768;2023-06-22T01:06:22;23.60;70.80
5868;DHT22;2960;49.142;7.768;2023-06-22T01:09:00;23.60;70.90
5868;DHT22;2960;49.142;7.768;2023-06-22T01:11:36;23.60;70.90
5868;DHT22;2960;49.142;7.768;2023-06-22T01:14:10;23.60;70.90
5868;DHT22;2960;49.142;7.768;2023-06-22T01:16:41;23.60;71.00
5868;DHT22;2960;49.142;7.768;2023-06-22T01:19:21;23.60;71.00
5868;DHT22;2960;49.142;7.768;2023-06-22T01:21:56;23.50;71.00
5868;DHT22;2960;49.142;7.768;2023-06-22T01:24:30;23.50;71.20
5868;DHT22;2960;49.142;7.768;2023-06-22T01:27:09;23.50;71.30
5868;DHT22;2960;49.142;7.768;2023-06-22T01:29:41;23.50;71.20
5868;DHT22;2960;49.142;7.768;2023-06-22T01:32:10;23.50;71.30
5868;DHT22;2960;49.142;7.768;2023-06-22T01:34:38;23.50;71.30
5868;DHT22;2960;49.142;7.768;2023-06-22T01:37:06;23.50;71.20
5868;DHT22;2960;49.142;7.768;2023-06-22T01:39:35;23.40;71.10
5868;DHT22;2960;49.142;7.768;2023-06-22T01:42:03;23.40;71.10
5868;DHT22;2960;49.142;7.768;2023-06-22T01:44:31;23.40;71.20
5868;DHT22;2960;49.142;7.768;2023-06-22T01:47:03;23.40;71.30
5868;DHT22;2960;49.142;7.768;2023-06-22T01:49:31;23.40;71.40
5868;DHT22;2960;49.142;7.768;2023-06-22T01:51:58;23.30;71.60
5868;DHT22;2960;49.142;7.768;2023-06-22T01:54:29;23.30;71.80
5868;DHT22;2960;49.142;7.768;2023-06-22T01:56:56;23.20;71.90
5868;DHT22;2960;49.142;7.768;2023-06-22T01:59:27;23.20;71.90
5868;DHT22;2960;49.142;7.768;2023-06-22T02:01:59;23.20;72.00
5868;DHT22;2960;49.142;7.768;2023-06-22T02:04:34;23.20;72.00
5868;DHT22;2960;49.142;7.768;2023-06-22T02:07:09;23.10;71.90
5868;DHT22;2960;49.142;7.768;2023-06-22T02:09:43;23.10;71.90
5868;DHT22;2960;49.142;7.768;2023-06-22T02:12:12;23.10;71.90
5868;DHT22;2960;49.142;7.768;2023-06-22T02:14:40;23.10;71.90
5868;DHT22;2960;49.142;7.768;2023-06-22T02:17:09;23.10;72.70
5868;DHT22;2960;49.142;7.768;2023-06-22T02:19:37;23.10;72.00
5868;DHT22;2960;49.142;7.768;2023-06-22T02:22:05;23.00;72.00
5868;DHT22;2960;49.142;7.768;2023-06-22T02:24:32;23.00;72.10
5868;DHT22;2960;49.142;7.768;2023-06-22T02:26:59;23.00;72.20
5868;DHT22;2960;49.142;7.768;2023-06-22T02:29:27;23.00;72.30
5868;DHT22;2960;49.142;7.768;2023-06-22T02:31:55;22.90;72.20
5868;DHT22;2960;49.142;7.768;2023-06-22T02:34:23;22.90;72.30
5868;DHT22;2960;49.142;7.768;2023-06-22T02:36:50;22.90;72.40
5868;DHT22;2960;49.142;7.768;2023-06-22T02:39:19;22.80;72.30
5868;DHT22;2960;49.142;7.768;2023-06-22T02:41:47;22.80;73.20
5868;DHT22;2960;49.142;7.768;2023-06-22T02:44:15;22.80;72.40
5868;DHT22;2960;49.142;7.768;2023-06-22T02:46:42;22.80;72.40
5868;DHT22;2960;49.142;7.768;2023-06-22T02:49:09;22.70;72.50
5868;DHT22;2960;49.142;7.768;2023-06-22T02:51:41;22.70;72.50
5868;DHT22;2960;49.142;7.768;2023-06-22T02:54:09;22.70;72.50
5868;DHT22;2960;49.142;7.768;2023-06-22T02:56:36;22.70;72.50
5868;DHT22;2960;49.142;7.768;2023-06-22T02:59:03;22.60;72.40
5868;DHT22;2960;49.142;7.768;2023-06-22T03:01:30;22.60;72.40
5868;DHT22;2960;49.142;7.768;2023-06-22T03:04:03;22.60;72.40
5868;DHT22;2960;49.142;7.768;2023-06-22T03:06:31;22.60;72.30
5868;DHT22;2960;49.142;7.768;2023-06-22T03:09:01;22.60;72.30
5868;DHT22;2960;49.142;7.768;2023-06-22T03:11:30;22.50;72.40
5868;DHT22;2960;49.142;7.768;2023-06-22T03:13:58;22.50;72.40
5868;DHT22;2960;49.142;7.768;2023-06-22T03:16:26;22.50;72.50
5868;DHT22;2960;49.142;7.768;2023-06-22T03:18:54;22.50;72.50
5868;DHT22;2960;49.142;7.768;2023-06-22T03:21:22;22.40;72.50
5868;DHT22;2960;49.142;7.768;2023-06-22T03:23:50;22.40;72.50
5868;DHT22;2960;49.142;7.768;2023-06-22T03:26:19;22.40;72.50
5868;DHT22;2960;49.142;7.768;2023-06-22T03:28:46;22.40;72.60
5868;DHT22;2960;49.142;7.768;2023-06-22T03:31:13;22.30;72.50
5868;DHT22;2960;49.142;7.768;2023-06-22T03:33:40;22.30;72.50
5868;DHT22;2960;49.142;7.768;2023-06-22T03:36:07;22.30;72.60
5868;DHT22;2960;49.142;7.768;2023-06-22T03:38:35;22.30;72.60
5868;DHT22;2960;49.142;7.768;2023-06-22T03:41:02;22.20;72.50
5868;DHT22;2960;49.142;7.768;2023-06-22T03:43:30;22.20;72.50
5868;DHT22;2960;49.142;7.768;2023-06-22T03:45:57;22.20;72.50
5868;DHT22;2960;49.142;7.768;2023-06-22T03:48:24;22.20;72.50
5868;DHT22;2960;49.142;7.768;2023-06-22T03:50:51;22.20;72.50
5868;DHT22;2960;49.142;7.768;2023-06-22T03:53:18;22.20;72.60
5868;DHT22;2960;49.142;7.768;2023-06-22T03:55:49;22.20;72.60
5868;DHT22;2960;49.142;7.768;2023-06-22T03:58:20;22.10;72.60
5868;DHT22;2960;49.142;7.768;2023-06-22T04:00:50;22.10;72.50
5868;DHT22;2960;49.142;7.768;2023-06-22T04:03:18;22.10;72.50
5868;DHT22;2960;49.142;7.768;2023-06-22T04:05:46;22.10;72.50
5868;DHT22;2960;49.142;7.768;2023-06-22T04:08:14;22.10;72.40
5868;DHT22;2960;49.142;7.768;2023-06-22T04:10:42;22.10;72.30
5868;DHT22;2960;49.142;7.768;2023-06-22T04:13:10;22.10;72.30
5868;DHT22;2960;49.142;7.768;2023-06-22T04:15:37;22.10;73.10
5868;DHT22;2960;49.142;7.768;2023-06-22T04:18:06;22.10;72.30
5868;DHT22;2960;49.142;7.768;2023-06-22T04:20:33;22.10;72.20
5868;DHT22;2960;49.142;7.768;2023-06-22T04:23:00;22.10;72.10
5868;DHT22;2960;49.142;7.768;2023-06-22T04:25:27;22.10;72.10
5868;DHT22;2960;49.142;7.768;2023-06-22T04:27:54;22.20;72.10
5868;DHT22;2960;49.142;7.768;2023-06-22T04:30:21;22.20;72.70
5868;DHT22;2960;49.142;7.768;2023-06-22T04:32:48;22.20;71.90
5868;DHT22;2960;49.142;7.768;2023-06-22T04:35:23;22.20;71.90
5868;DHT22;2960;49.142;7.768;2023-06-22T04:37:50;22.20;71.90
5868;DHT22;2960;49.142;7.768;2023-06-22T04:40:21;22.20;72.80
5868;DHT22;2960;49.142;7.768;2023-06-22T04:42:48;22.20;72.20
5868;DHT22;2960;49.142;7.768;2023-06-22T04:45:19;22.20;72.30
5868;DHT22;2960;49.142;7.768;2023-06-22T04:47:47;22.20;72.40
5868;DHT22;2960;49.142;7.768;2023-06-22T04:50:17;22.20;72.50
5868;DHT22;2960;49.142;7.768;2023-06-22T04:52:48;22.20;72.60
5868;DHT22;2960;49.142;7.768;2023-06-22T04:55:16;22.20;72.80
5868;DHT22;2960;49.142;7.768;2023-06-22T04:57:45;22.20;72.90
5868;DHT22;2960;49.142;7.768;2023-06-22T05:00:14;22.20;73.00
5868;DHT22;2960;49.142;7.768;2023-06-22T05:02:43;22.20;73.80
5868;DHT22;2960;49.142;7.768;2023-06-22T05:05:11;22.20;73.20
5868;DHT22;2960;49.142;7.768;2023-06-22T05:10:11;22.20;73.40
5868;DHT22;2960;49.142;7.768;2023-06-22T05:12:39;22.30;74.30
5868;DHT22;2960;49.142;7.768;2023-06-22T05:15:08;22.30;73.50
5868;DHT22;2960;49.142;7.768;2023-06-22T05:17:36;22.30;73.50
5868;DHT22;2960;49.142;7.768;2023-06-22T05:20:07;22.40;73.60
5868;DHT22;2960;49.142;7.768;2023-06-22T05:22:35;22.40;73.50
5868;DHT22;2960;49.142;7.768;2023-06-22T05:25:03;22.50;73.60
5868;DHT22;2960;49.142;7.768;2023-06-22T05:27:33;22.50;73.60
5868;DHT22;2960;49.142;7.768;2023-06-22T05:30:05;22.60;73.80
5868;DHT22;2960;49.142;7.768;2023-06-22T05:32:33;22.60;73.80
5868;DHT22;2960;49.142;7.768;2023-06-22T05:35:00;22.70;74.00
5868;DHT22;2960;49.142;7.768;2023-06-22T05:37:28;22.70;74.00
5868;DHT22;2960;49.142;7.768;2023-06-22T05:39:55;22.80;74.00
5868;DHT22;2960;49.142;7.768;2023-06-22T05:42:23;22.90;74.10
5868;DHT22;2960;49.142;7.768;2023-06-22T05:44:52;22.90;74.10
5868;DHT22;2960;49.142;7.768;2023-06-22T05:47:19;23.00;74.30
5868;DHT22;2960;49.142;7.768;2023-06-22T05:49:48;23.00;74.50
5868;DHT22;2960;49.142;7.768;2023-06-22T05:52:15;23.10;74.60
5868;DHT22;2960;49.142;7.768;2023-06-22T05:54:42;23.10;74.60
5868;DHT22;2960;49.142;7.768;2023-06-22T05:57:09;23.20;74.80
5868;DHT22;2960;49.142;7.768;2023-06-22T05:59:36;23.30;74.90
5868;DHT22;2960;49.142;7.768;2023-06-22T06:02:05;23.30;74.90
5868;DHT22;2960;49.142;7.768;2023-06-22T06:04:32;23.40;75.00
5868;DHT22;2960;49.142;7.768;2023-06-22T06:07:02;23.50;74.90
5868;DHT22;2960;49.142;7.768;2023-06-22T06:09:29;23.60;74.90
5868;DHT22;2960;49.142;7.768;2023-06-22T06:11:57;23.70;74.80
5868;DHT22;2960;49.142;7.768;2023-06-22T06:14:25;23.80;75.00
5868;DHT22;2960;49.142;7.768;2023-06-22T06:16:52;23.80;74.90
5868;DHT22;2960;49.142;7.768;2023-06-22T06:19:21;23.90;74.90
5868;DHT22;2960;49.142;7.768;2023-06-22T06:21:48;24.00;74.70
5868;DHT22;2960;49.142;7.768;2023-06-22T06:24:16;24.00;74.50
5868;DHT22;2960;49.142;7.768;2023-06-22T06:26:43;24.10;74.40
5868;DHT22;2960;49.142;7.768;2023-06-22T06:29:10;24.20;74.40
5868;DHT22;2960;49.142;7.768;2023-06-22T06:31:37;24.20;74.20
5868;DHT22;2960;49.142;7.768;2023-06-22T06:34:04;24.30;74.10
5868;DHT22;2960;49.142;7.768;2023-06-22T06:36:33;24.40;74.00
5868;DHT22;2960;49.142;7.768;2023-06-22T06:39:00;24.40;74.60
5868;DHT22;2960;49.142;7.768;2023-06-22T06:41:27;24.50;73.70
5868;DHT22;2960;49.142;7.768;2023-06-22T06:43:54;24.60;73.60
5868;DHT22;2960;49.142;7.768;2023-06-22T06:46:21;24.60;73.50
5868;DHT22;2960;49.142;7.768;2023-06-22T06:48:48;24.70;73.40
5868;DHT22;2960;49.142;7.768;2023-06-22T06:51:15;24.80;73.40
5868;DHT22;2960;49.142;7.768;2023-06-22T06:53:44;24.80;73.20
5868;DHT22;2960;49.142;7.768;2023-06-22T06:56:11;24.90;73.00
5868;DHT22;2960;49.142;7.768;2023-06-22T06:58:40;25.00;72.90
5868;DHT22;2960;49.142;7.768;2023-06-22T07:01:10;25.10;72.80
5868;DHT22;2960;49.142;7.768;2023-06-22T07:03:37;25.10;72.60
5868;DHT22;2960;49.142;7.768;2023-06-22T07:06:05;25.20;72.40
5868;DHT22;2960;49.142;7.768;2023-06-22T07:08:32;25.30;72.20
5868;DHT22;2960;49.142;7.768;2023-06-22T07:11:02;25.30;72.00
5868;DHT22;2960;49.142;7.768;2023-06-22T07:13:29;25.40;71.70
5868;DHT22;2960;49.142;7.768;2023-06-22T07:15:59;25.50;71.60
5868;DHT22;2960;49.142;7.768;2023-06-22T07:18:26;25.60;71.50
5868;DHT22;2960;49.142;7.768;2023-06-22T07:20:53;25.60;71.20
5868;DHT22;2960;49.142;7.768;2023-06-22T07:23:20;25.70;71.10
5868;DHT22;2960;49.142;7.768;2023-06-22T07:25:47;25.80;71.00
5868;DHT22;2960;49.142;7.768;2023-06-22T07:28:16;25.90;70.80
5868;DHT22;2960;49.142;7.768;2023-06-22T07:30:43;25.90;70.50
5868;DHT22;2960;49.142;7.768;2023-06-22T07:33:10;26.00;70.40
5868;DHT22;2960;49.142;7.768;2023-06-22T07:35:37;26.10;70.30
5868;DHT22;2960;49.142;7.768;2023-06-22T07:38:05;26.20;70.80
5868;DHT22;2960;49.142;7.768;2023-06-22T07:40:32;26.30;69.80
5868;DHT22;2960;49.142;7.768;2023-06-22T07:43:00;26.30;69.50
5868;DHT22;2960;49.142;7.768;2023-06-22T07:45:29;26.40;69.40
5868;DHT22;2960;49.142;7.768;2023-06-22T07:47:59;26.40;69.10
5868;DHT22;2960;49.142;7.768;2023-06-22T07:50:26;26.50;68.90
5868;DHT22;2960;49.142;7.768;2023-06-22T07:52:56;26.50;68.70
5868;DHT22;2960;49.142;7.768;2023-06-22T07:55:24;26.60;68.60
5868;DHT22;2960;49.142;7.768;2023-06-22T07:57:51;26.60;68.40
5868;DHT22;2960;49.142;7.768;2023-06-22T08:00:18;26.70;68.40
5868;DHT22;2960;49.142;7.768;2023-06-22T08:02:47;26.70;68.30
5868;DHT22;2960;49.142;7.768;2023-06-22T08:05:14;26.80;68.20
5868;DHT22;2960;49.142;7.768;2023-06-22T08:07:43;26.80;67.90
5868;DHT22;2960;49.142;7.768;2023-06-22T08:10:11;26.90;67.70
5868;DHT22;2960;49.142;7.768;2023-06-22T08:12:38;27.00;67.50
5868;DHT22;2960;49.142;7.768;2023-06-22T08:15:07;27.00;67.20
5868;DHT22;2960;49.142;7.768;2023-06-22T08:17:36;27.10;67.00
5868;DHT22;2960;49.142;7.768;2023-06-22T08:20:06;27.10;66.60
5868;DHT22;2960;49.142;7.768;2023-06-22T08:22:37;27.10;66.40
5868;DHT22;2960;49.142;7.768;2023-06-22T08:25:05;27.10;66.30
5868;DHT22;2960;49.142;7.768;2023-06-22T08:27:33;27.10;66.10
5868;DHT22;2960;49.142;7.768;2023-06-22T08:30:01;27.10;65.90
5868;DHT22;2960;49.142;7.768;2023-06-22T08:32:29;27.20;65.80
5868;DHT22;2960;49.142;7.768;2023-06-22T08:34:58;27.20;65.60
5868;DHT22;2960;49.142;7.768;2023-06-22T08:37:28;27.30;65.30
5868;DHT22;2960;49.142;7.768;2023-06-22T08:40:01;27.30;65.90
5868;DHT22;2960;49.142;7.768;2023-06-22T08:42:30;27.30;65.00
5868;DHT22;2960;49.142;7.768;2023-06-22T08:44:57;27.40;64.90
5868;DHT22;2960;49.142;7.768;2023-06-22T08:47:24;27.50;64.90
5868;DHT22;2960;49.142;7.768;2023-06-22T08:49:51;27.60;64.70
5868;DHT22;2960;49.142;7.768;2023-06-22T08:52:18;27.70;65.40
5868;DHT22;2960;49.142;7.768;2023-06-22T08:54:48;27.70;64.40
5868;DHT22;2960;49.142;7.768;2023-06-22T08:57:15;27.80;64.30
5868;DHT22;2960;49.142;7.768;2023-06-22T08:59:42;27.90;64.90
5868;DHT22;2960;49.142;7.768;2023-06-22T09:02:09;28.00;63.90
5868;DHT22;2960;49.142;7.768;2023-06-22T09:04:36;28.10;63.70
5868;DHT22;2960;49.142;7.768;2023-06-22T09:07:07;28.20;63.30
5868;DHT22;2960;49.142;7.768;2023-06-22T09:09:37;28.30;63.10
5868;DHT22;2960;49.142;7.768;2023-06-22T09:12:07;28.40;62.70
5868;DHT22;2960;49.142;7.768;2023-06-22T09:14:34;28.50;62.30
5868;DHT22;2960;49.142;7.768;2023-06-22T09:17:02;28.60;61.90
5868;DHT22;2960;49.142;7.768;2023-06-22T09:19:29;28.60;61.70
5868;DHT22;2960;49.142;7.768;2023-06-22T09:21:57;28.70;61.70
5868;DHT22;2960;49.142;7.768;2023-06-22T09:24:24;28.70;61.30
5868;DHT22;2960;49.142;7.768;2023-06-22T09:26:51;28.80;61.20
5868;DHT22;2960;49.142;7.768;2023-06-22T09:29:20;28.80;61.00
5868;DHT22;2960;49.142;7.768;2023-06-22T09:31:47;28.90;60.80
5868;DHT22;2960;49.142;7.768;2023-06-22T09:34:14;28.90;60.60
5868;DHT22;2960;49.142;7.768;2023-06-22T09:36:45;29.00;60.60
5868;DHT22;2960;49.142;7.768;2023-06-22T09:39:13;29.00;60.40
5868;DHT22;2960;49.142;7.768;2023-06-22T09:41:40;29.00;60.30
5868;DHT22;2960;49.142;7.768;2023-06-22T09:44:07;29.10;60.20
5868;DHT22;2960;49.142;7.768;2023-06-22T09:46:35;29.10;60.00
5868;DHT22;2960;49.142;7.768;2023-06-22T09:49:02;29.20;59.90
5868;DHT22;2960;49.142;7.768;2023-06-22T09:51:30;29.20;59.80
5868;DHT22;2960;49.142;7.768;2023-06-22T09:53:57;29.20;59.70
5868;DHT22;2960;49.142;7.768;2023-06-22T09:56:24;29.20;59.70
5868;DHT22;2960;49.142;7.768;2023-06-22T09:58:54;29.30;59.60
5868;DHT22;2960;49.142;7.768;2023-06-22T10:01:21;29.30;59.60
5868;DHT22;2960;49.142;7.768;2023-06-22T10:03:49;29.30;59.50
5868;DHT22;2960;49.142;7.768;2023-06-22T10:06:19;29.40;59.50
5868;DHT22;2960;49.142;7.768;2023-06-22T10:08:47;29.40;59.40
5868;DHT22;2960;49.142;7.768;2023-06-22T10:11:14;29.50;59.30
5868;DHT22;2960;49.142;7.768;2023-06-22T10:13:41;29.60;59.20
5868;DHT22;2960;49.142;7.768;2023-06-22T10:16:08;29.70;59.10
5868;DHT22;2960;49.142;7.768;2023-06-22T10:18:36;29.80;59.00
5868;DHT22;2960;49.142;7.768;2023-06-22T10:21:04;29.90;58.90
5868;DHT22;2960;49.142;7.768;2023-06-22T10:23:31;29.90;58.80
5868;DHT22;2960;49.142;7.768;2023-06-22T10:25:58;30.00;58.60
5868;DHT22;2960;49.142;7.768;2023-06-22T10:28:25;30.00;58.40
5868;DHT22;2960;49.142;7.768;2023-06-22T10:30:52;30.10;58.30
5868;DHT22;2960;49.142;7.768;2023-06-22T10:33:19;30.10;58.30
5868;DHT22;2960;49.142;7.768;2023-06-22T10:35:47;30.10;58.30
5868;DHT22;2960;49.142;7.768;2023-06-22T10:38:17;30.10;58.20
5868;DHT22;2960;49.142;7.768;2023-06-22T10:40:45;30.20;58.20
5868;DHT22;2960;49.142;7.768;2023-06-22T10:43:12;30.20;58.10
5868;DHT22;2960;49.142;7.768;2023-06-22T10:45:39;30.30;57.90
5868;DHT22;2960;49.142;7.768;2023-06-22T10:48:06;30.30;57.70
5868;DHT22;2960;49.142;7.768;2023-06-22T10:50:34;30.30;57.70
5868;DHT22;2960;49.142;7.768;2023-06-22T10:53:01;30.30;58.20
5868;DHT22;2960;49.142;7.768;2023-06-22T10:55:31;30.30;57.70
5868;DHT22;2960;49.142;7.768;2023-06-22T10:57:59;30.30;57.60
5868;DHT22;2960;49.142;7.768;2023-06-22T11:00:26;30.40;57.60
5868;DHT22;2960;49.142;7.768;2023-06-22T11:02:54;30.50;57.70
5868;DHT22;2960;49.142;7.768;2023-06-22T11:05:22;30.50;57.40
5868;DHT22;2960;49.142;7.768;2023-06-22T11:07:49;30.60;57.30
5868;DHT22;2960;49.142;7.768;2023-06-22T11:10:16;30.60;57.20
5868;DHT22;2960;49.142;7.768;2023-06-22T11:12:45;30.60;57.20
5868;DHT22;2960;49.142;7.768;2023-06-22T11:15:12;30.70;57.10
5868;DHT22;2960;49.142;7.768;2023-06-22T11:17:39;30.70;57.00
5868;DHT22;2960;49.142;7.768;2023-06-22T11:20:07;30.80;56.90
5868;DHT22;2960;49.142;7.768;2023-06-22T11:22:37;30.90;56.90
5868;DHT22;2960;49.142;7.768;2023-06-22T11:25:05;30.90;56.80
5868;DHT22;2960;49.142;7.768;2023-06-22T11:27:33;31.00;56.80
5868;DHT22;2960;49.142;7.768;2023-06-22T11:30:01;31.00;56.70
5868;DHT22;2960;49.142;7.768;2023-06-22T11:32:29;31.00;56.70
5868;DHT22;2960;49.142;7.768;2023-06-22T11:34:56;31.10;56.70
5868;DHT22;2960;49.142;7.768;2023-06-22T11:37:24;31.20;56.60
5868;DHT22;2960;49.142;7.768;2023-06-22T11:39:51;31.20;56.50
5868;DHT22;2960;49.142;7.768;2023-06-22T11:42:20;31.30;56.20
5868;DHT22;2960;49.142;7.768;2023-06-22T11:44:49;31.30;56.00
5868;DHT22;2960;49.142;7.768;2023-06-22T11:47:17;31.30;55.90
5868;DHT22;2960;49.142;7.768;2023-06-22T11:49:44;31.30;55.90
5868;DHT22;2960;49.142;7.768;2023-06-22T11:52:11;31.30;55.80
5868;DHT22;2960;49.142;7.768;2023-06-22T11:54:43;31.30;55.80
5868;DHT22;2960;49.142;7.768;2023-06-22T11:57:11;31.30;55.60
5868;DHT22;2960;49.142;7.768;2023-06-22T11:59:38;31.30;55.60
5868;DHT22;2960;49.142;7.768;2023-06-22T12:02:09;31.30;55.60
5868;DHT22;2960;49.142;7.768;2023-06-22T12:04:37;31.30;55.60
5868;DHT22;2960;49.142;7.768;2023-06-22T12:07:04;31.20;56.00
5868;DHT22;2960;49.142;7.768;2023-06-22T12:09:32;31.20;55.50
5868;DHT22;2960;49.142;7.768;2023-06-22T12:11:59;31.20;55.60
5868;DHT22;2960;49.142;7.768;2023-06-22T12:14:27;31.20;55.60
5868;DHT22;2960;49.142;7.768;2023-06-22T12:16:54;31.20;55.50
5868;DHT22;2960;49.142;7.768;2023-06-22T12:19:21;31.20;55.60
5868;DHT22;2960;49.142;7.768;2023-06-22T12:21:49;31.20;55.40
5868;DHT22;2960;49.142;7.768;2023-06-22T12:24:16;31.20;55.50
5868;DHT22;2960;49.142;7.768;2023-06-22T12:26:46;31.20;55.50
5868;DHT22;2960;49.142;7.768;2023-06-22T12:29:13;31.20;55.50
5868;DHT22;2960;49.142;7.768;2023-06-22T12:31:40;31.20;55.40
5868;DHT22;2960;49.142;7.768;2023-06-22T12:34:07;31.10;55.40
5868;DHT22;2960;49.142;7.768;2023-06-22T12:36:34;31.10;55.40
5868;DHT22;2960;49.142;7.768;2023-06-22T12:39:03;31.20;55.50
5868;DHT22;2960;49.142;7.768;2023-06-22T12:41:30;31.20;55.50
5868;DHT22;2960;49.142;7.768;2023-06-22T12:43:57;31.20;55.40
5868;DHT22;2960;49.142;7.768;2023-06-22T12:46:24;31.20;55.30
5868;DHT22;2960;49.142;7.768;2023-06-22T12:48:51;31.20;55.50
5868;DHT22;2960;49.142;7.768;2023-06-22T12:51:21;31.20;55.60
5868;DHT22;2960;49.142;7.768;2023-06-22T12:53:49;31.30;56.20
5868;DHT22;2960;49.142;7.768;2023-06-22T12:56:17;31.30;55.50
5868;DHT22;2960;49.142;7.768;2023-06-22T12:58:45;31.40;55.50
5868;DHT22;2960;49.142;7.768;2023-06-22T13:01:12;31.40;55.40
5868;DHT22;2960;49.142;7.768;2023-06-22T13:03:40;31.40;55.20
5868;DHT22;2960;49.142;7.768;2023-06-22T13:06:08;31.50;55.20
5868;DHT22;2960;49.142;7.768;2023-06-22T13:08:35;31.60;55.10
5868;DHT22;2960;49.142;7.768;2023-06-22T13:11:02;31.70;54.90
5868;DHT22;2960;49.142;7.768;2023-06-22T13:13:31;31.70;54.60
5868;DHT22;2960;49.142;7.768;2023-06-22T13:15:59;31.70;54.80
5868;DHT22;2960;49.142;7.768;2023-06-22T13:18:27;31.70;54.10
5868;DHT22;2960;49.142;7.768;2023-06-22T13:20:54;31.80;53.90
5868;DHT22;2960;49.142;7.768;2023-06-22T13:23:21;31.80;53.60
5868;DHT22;2960;49.142;7.768;2023-06-22T13:25:48;31.90;53.40
5868;DHT22;2960;49.142;7.768;2023-06-22T13:28:15;31.90;53.30
5868;DHT22;2960;49.142;7.768;2023-06-22T13:30:44;31.90;53.10
5868;DHT22;2960;49.142;7.768;2023-06-22T13:33:12;31.80;52.90
5868;DHT22;2960;49.142;7.768;2023-06-22T13:35:40;31.80;53.00
5868;DHT22;2960;49.142;7.768;2023-06-22T13:38:08;31.70;53.10
5868;DHT22;2960;49.142;7.768;2023-06-22T13:40:35;31.70;53.20
5868;DHT22;2960;49.142;7.768;2023-06-22T13:43:03;31.60;53.20
5868;DHT22;2960;49.142;7.768;2023-06-22T13:45:30;31.60;53.30
5868;DHT22;2960;49.142;7.768;2023-06-22T13:47:59;31.50;53.30
5868;DHT22;2960;49.142;7.768;2023-06-22T13:50:26;31.40;53.20
5868;DHT22;2960;49.142;7.768;2023-06-22T13:52:54;31.30;53.40
5868;DHT22;2960;49.142;7.768;2023-06-22T13:55:22;31.30;53.60
5868;DHT22;2960;49.142;7.768;2023-06-22T13:57:50;31.20;53.70
5868;DHT22;2960;49.142;7.768;2023-06-22T14:00:18;31.20;53.80
5868;DHT22;2960;49.142;7.768;2023-06-22T14:02:46;31.20;54.50
5868;DHT22;2960;49.142;7.768;2023-06-22T14:05:14;31.20;54.00
5868;DHT22;2960;49.142;7.768;2023-06-22T14:07:42;31.10;54.10
5868;DHT22;2960;49.142;7.768;2023-06-22T14:10:09;31.10;54.20
5868;DHT22;2960;49.142;7.768;2023-06-22T14:12:36;31.20;54.30
5868;DHT22;2960;49.142;7.768;2023-06-22T14:15:05;31.20;54.40
5868;DHT22;2960;49.142;7.768;2023-06-22T14:17:32;31.20;54.50
5868;DHT22;2960;49.142;7.768;2023-06-22T14:19:59;31.20;54.50
5868;DHT22;2960;49.142;7.768;2023-06-22T14:22:28;31.20;54.50
5868;DHT22;2960;49.142;7.768;2023-06-22T14:24:56;31.20;54.60
5868;DHT22;2960;49.142;7.768;2023-06-22T14:27:24;31.20;54.60
5868;DHT22;2960;49.142;7.768;2023-06-22T14:29:51;31.20;54.60
5868;DHT22;2960;49.142;7.768;2023-06-22T14:32:18;31.20;54.60
5868;DHT22;2960;49.142;7.768;2023-06-22T14:34:48;31.20;54.70
5868;DHT22;2960;49.142;7.768;2023-06-22T14:37:15;31.20;54.70
5868;DHT22;2960;49.142;7.768;2023-06-22T14:39:46;31.20;54.70
5868;DHT22;2960;49.142;7.768;2023-06-22T14:42:13;31.20;54.70
5868;DHT22;2960;49.142;7.768;2023-06-22T14:44:43;31.20;54.60
5868;DHT22;2960;49.142;7.768;2023-06-22T14:47:10;31.20;55.10
5868;DHT22;2960;49.142;7.768;2023-06-22T14:49:37;31.10;54.60
5868;DHT22;2960;49.142;7.768;2023-06-22T14:52:05;31.00;54.50
5868;DHT22;2960;49.142;7.768;2023-06-22T14:54:33;31.00;54.10
5868;DHT22;2960;49.142;7.768;2023-06-22T14:57:01;31.00;54.00
5868;DHT22;2960;49.142;7.768;2023-06-22T14:59:29;30.90;53.50
5868;DHT22;2960;49.142;7.768;2023-06-22T15:01:56;30.90;53.60
5868;DHT22;2960;49.142;7.768;2023-06-22T15:04:23;30.80;53.60
5868;DHT22;2960;49.142;7.768;2023-06-22T15:06:52;30.80;54.10
5868;DHT22;2960;49.142;7.768;2023-06-22T15:09:19;30.70;54.20
5868;DHT22;2960;49.142;7.768;2023-06-22T15:11:46;30.80;53.70
5868;DHT22;2960;49.142;7.768;2023-06-22T15:14:15;30.70;53.70
5868;DHT22;2960;49.142;7.768;2023-06-22T15:16:42;30.70;53.60
5868;DHT22;2960;49.142;7.768;2023-06-22T15:19:09;30.70;53.60
5868;DHT22;2960;49.142;7.768;2023-06-22T15:21:38;30.70;53.80
5868;DHT22;2960;49.142;7.768;2023-06-22T15:24:05;30.80;53.90
5868;DHT22;2960;49.142;7.768;2023-06-22T15:26:32;30.70;53.90
5868;DHT22;2960;49.142;7.768;2023-06-22T15:29:00;30.70;54.00
5868;DHT22;2960;49.142;7.768;2023-06-22T15:31:29;30.80;54.20
5868;DHT22;2960;49.142;7.768;2023-06-22T15:33:56;30.70;54.20
5868;DHT22;2960;49.142;7.768;2023-06-22T15:36:23;30.70;54.80
5868;DHT22;2960;49.142;7.768;2023-06-22T15:38:51;30.70;54.30
5868;DHT22;2960;49.142;7.768;2023-06-22T15:41:18;30.60;54.40
5868;DHT22;2960;49.142;7.768;2023-06-22T15:43:45;30.60;54.50
5868;DHT22;2960;49.142;7.768;2023-06-22T15:46:12;30.60;54.50
5868;DHT22;2960;49.142;7.768;2023-06-22T15:48:43;30.60;54.30
5868;DHT22;2960;49.142;7.768;2023-06-22T15:51:10;30.60;53.30
5868;DHT22;2960;49.142;7.768;2023-06-22T15:53:37;30.60;52.60
5868;DHT22;2960;49.142;7.768;2023-06-22T15:56:04;30.60;52.10
5868;DHT22;2960;49.142;7.768;2023-06-22T15:58:34;30.60;50.60
5868;DHT22;2960;49.142;7.768;2023-06-22T16:01:02;30.60;50.10
5868;DHT22;2960;49.142;7.768;2023-06-22T16:03:29;30.60;50.40
5868;DHT22;2960;49.142;7.768;2023-06-22T16:05:57;30.60;48.80
5868;DHT22;2960;49.142;7.768;2023-06-22T16:08:24;30.60;48.70
5868;DHT22;2960;49.142;7.768;2023-06-22T16:10:53;30.60;48.40